Time;durP1;ratioP1;P1;durP2;ratioP2;P2;SDS_P1;SDS_P2;PMS_P1;PMS_P2;Temp;Humidity;BMP_temperature;BMP_pressure;BME280_temperature;BME280_humidity;BME280_pressure;Samples;Min_cycle;Max_cycle;Signal;HPM_P1;HPM_P2
2021/11/03 00:01:29;;;;;;;1.00;0.60;;;21.70;43.00;;;;;;5056095;28;20410;-81
2021/11/03 00:03:55;;;;;;;1.75;0.70;;;21.70;43.10;;;;;;5053951;28;20886;-62
2021/11/03 00:06:23;;;;;;;0.88;0.50;;;21.70;43.10;;;;;;5052340;28;20416;-63
2021/11/03 00:08:49;;;;;;;1.20;0.50;;;21.70;43.00;;;;;;5063836;28;20410;-69
2021/11/03 00:11:15;;;;;;;0.90;0.50;;;21.70;43.10;;;;;;5071756;28;20431;-62
2021/11/03 00:13:41;;;;;;;0.93;0.53;;;21.70;42.90;;;;;;5057646;28;20400;-65
2021/11/03 00:16:08;;;;;;;1.20;0.50;;;21.70;43.10;;;;;;5061493;28;20399;-64
2021/11/03 00:18:34;;;;;;;0.70;0.50;;;21.60;43.00;;;;;;5068374;28;21014;-69
2021/11/03 00:21:01;;;;;;;1.00;0.70;;;21.70;43.10;;;;;;5069069;28;20453;-63
2021/11/03 00:23:27;;;;;;;1.00;0.60;;;21.60;42.90;;;;;;5075184;28;20417;-63
2021/11/03 00:25:53;;;;;;;1.20;0.50;;;21.60;43.00;;;;;;5071620;28;20394;-63
2021/11/03 00:28:21;;;;;;;0.90;0.60;;;21.60;42.90;;;;;;5065838;28;20399;-68
2021/11/03 00:30:48;;;;;;;0.88;0.50;;;21.60;43.00;;;;;;5063393;28;20385;-86
2021/11/03 00:33:16;;;;;;;0.82;0.52;;;21.60;43.20;;;;;;5052048;28;20389;-88
2021/11/03 00:35:41;;;;;;;0.75;0.50;;;21.60;43.00;;;;;;5065865;28;20494;-77
2021/11/03 00:38:07;;;;;;;0.70;0.40;;;21.60;43.00;;;;;;5063602;28;20947;-87
2021/11/03 00:40:33;;;;;;;0.83;0.50;;;21.50;43.00;;;;;;5054411;28;20752;-63
2021/11/03 00:42:59;;;;;;;0.80;0.50;;;21.60;42.90;;;;;;5054789;28;20399;-89
2021/11/03 00:45:25;;;;;;;1.20;0.50;;;21.60;43.00;;;;;;5036225;28;20748;-90
2021/11/03 00:47:51;;;;;;;1.00;0.60;;;21.50;43.40;;;;;;5068321;28;20647;-70
2021/11/03 00:50:18;;;;;;;1.17;0.70;;;21.60;43.40;;;;;;5068664;28;20393;-89
2021/11/03 00:52:43;;;;;;;0.93;0.50;;;21.60;43.50;;;;;;5052294;28;20397;-74
2021/11/03 00:55:09;;;;;;;0.90;0.47;;;21.70;43.50;;;;;;5058022;28;20464;-88
2021/11/03 00:57:35;;;;;;;0.52;0.40;;;21.70;43.30;;;;;;5058989;28;20457;-66
2021/11/03 01:00:01;;;;;;;1.27;0.60;;;21.80;43.10;;;;;;5057103;28;20889;-63
2021/11/03 01:02:27;;;;;;;1.00;0.50;;;21.90;43.10;;;;;;5057346;28;20956;-77
2021/11/03 01:04:53;;;;;;;0.90;0.50;;;21.90;43.00;;;;;;5057905;28;20492;-66
2021/11/03 01:07:18;;;;;;;0.77;0.50;;;21.90;42.90;;;;;;5058329;28;20488;-73
2021/11/03 01:09:44;;;;;;;1.03;0.50;;;21.90;42.80;;;;;;5057877;28;20531;-68
2021/11/03 01:12:10;;;;;;;1.37;0.60;;;22.00;42.90;;;;;;5060771;28;20406;-65
2021/11/03 01:14:37;;;;;;;1.00;0.50;;;22.00;42.70;;;;;;5058282;28;20387;-63
2021/11/03 01:17:04;;;;;;;1.33;0.60;;;22.00;42.90;;;;;;5059111;28;20439;-71
2021/11/03 01:19:30;;;;;;;0.90;0.60;;;22.00;42.70;;;;;;5062948;28;20768;-86
2021/11/03 01:21:55;;;;;;;0.80;0.52;;;22.10;42.80;;;;;;5060421;28;20417;-75
2021/11/03 01:24:21;;;;;;;1.07;0.60;;;22.10;42.70;;;;;;5066423;28;20474;-87
2021/11/03 01:26:47;;;;;;;0.73;0.50;;;22.10;42.70;;;;;;5062371;28;20397;-88
2021/11/03 01:29:12;;;;;;;0.90;0.57;;;22.10;42.60;;;;;;5058370;28;20384;-79
2021/11/03 01:31:38;;;;;;;0.80;0.50;;;22.10;42.50;;;;;;5065666;28;20923;-71
2021/11/03 01:34:05;;;;;;;0.90;0.40;;;22.10;42.50;;;;;;5058399;28;20740;-87
2021/11/03 01:36:31;;;;;;;0.70;0.40;;;22.10;42.50;;;;;;5076648;28;20463;-84
2021/11/03 01:38:57;;;;;;;0.80;0.40;;;22.20;42.50;;;;;;5063596;28;20428;-80
2021/11/03 01:41:23;;;;;;;0.68;0.40;;;22.20;42.40;;;;;;5061704;28;20387;-78
2021/11/03 01:44:04;;;;;;;0.70;0.30;;;22.20;42.50;;;;;;5057297;28;20437;-67
2021/11/03 01:46:39;;;;;;;1.23;0.40;;;22.20;42.50;;;;;;5056573;28;20480;-63
2021/11/03 01:49:21;;;;;;;0.80;0.50;;;22.20;42.40;;;;;;5056402;28;20403;-79
2021/11/03 01:51:57;;;;;;;0.88;0.40;;;22.10;42.30;;;;;;5057515;28;20416;-71
2021/11/03 01:54:42;;;;;;;0.80;0.40;;;22.20;42.90;;;;;;5059764;28;20862;-87
2021/11/03 01:57:15;;;;;;;1.00;0.50;;;22.20;42.30;;;;;;5072236;28;20790;-72
2021/11/03 01:59:47;;;;;;;0.80;0.35;;;22.20;42.40;;;;;;5059241;28;20414;-66
2021/11/03 02:02:16;;;;;;;0.80;0.40;;;22.20;42.30;;;;;;5058788;28;20957;-68
2021/11/03 02:04:42;;;;;;;0.70;0.40;;;22.20;42.30;;;;;;5054816;28;20399;-67
2021/11/03 02:07:13;;;;;;;0.65;0.30;;;22.20;42.30;;;;;;5053543;28;20385;-78
2021/11/03 02:09:38;;;;;;;0.82;0.40;;;22.20;42.10;;;;;;5057974;28;20383;-64
2021/11/03 02:12:04;;;;;;;1.00;0.40;;;22.20;42.00;;;;;;5056339;28;20431;-63
2021/11/03 02:14:30;;;;;;;1.00;0.50;;;22.30;41.90;;;;;;5056812;28;20388;-63
2021/11/03 02:16:56;;;;;;;0.70;0.40;;;22.30;41.90;;;;;;5056268;28;20985;-85
2021/11/03 02:19:29;;;;;;;0.80;0.40;;;22.30;41.80;;;;;;5056885;28;20489;-83
2021/11/03 02:22:19;;;;;;;1.30;0.30;;;22.30;41.80;;;;;;5056783;28;20524;-66
2021/11/03 02:24:54;;;;;;;0.63;0.40;;;22.30;41.80;;;;;;5057419;28;20389;-65
2021/11/03 02:27:22;;;;;;;1.15;0.50;;;22.30;41.80;;;;;;5056819;28;20405;-87
2021/11/03 02:29:49;;;;;;;2.25;0.50;;;22.30;41.80;;;;;;5055449;28;20384;-70
2021/11/03 02:32:27;;;;;;;0.73;0.40;;;22.30;41.70;;;;;;5055392;28;20392;-63
2021/11/03 02:34:53;;;;;;;0.50;0.30;;;22.30;41.80;;;;;;5055159;28;20394;-65
2021/11/03 02:37:28;;;;;;;0.65;0.40;;;22.30;41.80;;;;;;5055984;28;20425;-75
2021/11/03 02:40:00;;;;;;;0.88;0.50;;;22.30;41.80;;;;;;5055518;28;20388;-64
2021/11/03 02:42:30;;;;;;;0.60;0.40;;;22.20;41.60;;;;;;5055442;28;20392;-76
2021/11/03 02:44:57;;;;;;;0.60;0.40;;;22.20;41.70;;;;;;5055445;28;20420;-62
2021/11/03 02:47:23;;;;;;;0.70;0.40;;;22.30;41.70;;;;;;5055784;28;20392;-83
2021/11/03 02:49:48;;;;;;;0.60;0.43;;;22.30;41.70;;;;;;5056274;28;20384;-65
2021/11/03 02:52:21;;;;;;;0.70;0.40;;;22.20;41.60;;;;;;5056949;28;20416;-63
2021/11/03 02:54:47;;;;;;;0.70;0.40;;;22.30;41.60;;;;;;5055511;28;20387;-88
2021/11/03 02:57:13;;;;;;;0.77;0.40;;;22.30;41.60;;;;;;5058747;28;20487;-67
2021/11/03 02:59:39;;;;;;;0.60;0.37;;;22.30;41.60;;;;;;5054131;28;20388;-70
2021/11/03 03:02:05;;;;;;;0.60;0.40;;;22.30;41.60;;;;;;5057379;28;20403;-66
2021/11/03 03:04:44;;;;;;;0.70;0.40;;;22.30;41.60;;;;;;5055503;28;20484;-86
2021/11/03 03:07:12;;;;;;;0.65;0.50;;;22.30;41.50;;;;;;5055984;28;20389;-87
2021/11/03 03:09:38;;;;;;;0.63;0.40;;;22.30;41.60;;;;;;5053234;28;20944;-66
2021/11/03 03:12:06;;;;;;;0.80;0.40;;;22.30;41.50;;;;;;5057542;28;20786;-63
2021/11/03 03:14:36;;;;;;;0.65;0.40;;;22.30;41.50;;;;;;5055429;28;20792;-63
2021/11/03 03:17:06;;;;;;;0.90;0.40;;;22.30;41.50;;;;;;5054483;28;20429;-63
2021/11/03 03:19:32;;;;;;;0.50;0.30;;;22.30;41.50;;;;;;5070996;28;20397;-71
2021/11/03 03:21:58;;;;;;;0.90;0.40;;;22.30;41.40;;;;;;5057417;28;20471;-64
2021/11/03 03:24:23;;;;;;;1.08;0.40;;;22.30;41.40;;;;;;5056412;28;20472;-88
2021/11/03 03:26:49;;;;;;;0.50;0.38;;;22.30;41.40;;;;;;5055436;28;20400;-65
2021/11/03 03:29:17;;;;;;;0.73;0.50;;;22.30;41.30;;;;;;5057774;28;20395;-70
2021/11/03 03:31:44;;;;;;;1.00;0.40;;;22.30;41.20;;;;;;5055869;28;20441;-88
2021/11/03 03:34:13;;;;;;;0.50;0.40;;;22.30;41.20;;;;;;5055370;28;20417;-76
2021/11/03 03:36:39;;;;;;;0.45;0.20;;;22.30;41.30;;;;;;5055655;28;20421;-72
2021/11/03 03:39:08;;;;;;;0.82;0.50;;;22.30;41.20;;;;;;5056957;28;20371;-68
2021/11/03 03:41:34;;;;;;;0.50;0.32;;;22.30;41.10;;;;;;5056073;28;20391;-88
2021/11/03 03:44:00;;;;;;;0.50;0.30;;;22.30;41.20;;;;;;5055038;28;20416;-78
2021/11/03 03:46:25;;;;;;;1.30;0.40;;;22.30;41.10;;;;;;5056032;28;20429;-74
2021/11/03 03:48:52;;;;;;;0.80;0.40;;;22.30;41.10;;;;;;5056767;28;20531;-64
2021/11/03 03:51:19;;;;;;;0.75;0.30;;;22.30;41.20;;;;;;5055146;28;20532;-63
2021/11/03 03:53:47;;;;;;;1.02;0.40;;;22.30;41.20;;;;;;5054516;28;20376;-85
2021/11/03 03:56:14;;;;;;;0.60;0.30;;;22.30;41.20;;;;;;5054708;28;21120;-69
2021/11/03 03:58:42;;;;;;;0.95;0.43;;;22.30;41.20;;;;;;5055306;28;20396;-76
2021/11/03 04:01:10;;;;;;;0.45;0.30;;;22.30;41.20;;;;;;5055692;28;20639;-69
2021/11/03 04:03:35;;;;;;;0.52;0.38;;;22.30;41.20;;;;;;5052359;28;20394;-72
2021/11/03 04:06:01;;;;;;;0.80;0.30;;;22.30;41.20;;;;;;5053403;28;20406;-69
2021/11/03 04:08:27;;;;;;;2.57;0.40;;;22.30;40.70;;;;;;5050851;28;20762;-71
2021/11/03 04:10:53;;;;;;;1.42;0.40;;;22.40;41.70;;;;;;5047813;28;20444;-85
2021/11/03 04:13:20;;;;;;;3.40;0.50;;;22.40;41.90;;;;;;5055035;28;20476;-63
2021/11/03 04:15:46;;;;;;;1.23;0.43;;;22.50;42.10;;;;;;5056541;28;20409;-86
2021/11/03 04:18:12;;;;;;;3.17;0.50;;;22.50;42.00;;;;;;5054265;28;20413;-64
2021/11/03 04:20:38;;;;;;;2.00;0.65;;;22.50;41.90;;;;;;5053132;28;20753;-78
2021/11/03 04:23:04;;;;;;;6.43;0.70;;;22.50;42.40;;;;;;5055223;28;20413;-68
2021/11/03 04:25:30;;;;;;;2.50;0.40;;;22.60;42.50;;;;;;5035849;28;20388;-63
2021/11/03 04:27:56;;;;;;;3.28;0.60;;;22.60;42.70;;;;;;5054605;28;20855;-63
2021/11/03 04:30:23;;;;;;;2.58;0.60;;;22.70;42.60;;;;;;5053019;28;21028;-80
2021/11/03 04:32:48;;;;;;;2.17;0.52;;;22.70;42.90;;;;;;5054893;28;20433;-88
2021/11/03 04:35:15;;;;;;;3.87;0.63;;;22.70;42.20;;;;;;5054212;28;20389;-82
2021/11/03 04:37:41;;;;;;;3.88;0.50;;;22.70;42.10;;;;;;5054097;28;20581;-76
2021/11/03 04:40:10;;;;;;;3.17;0.70;;;22.70;41.60;;;;;;5054131;28;20389;-69
2021/11/03 04:42:36;;;;;;;9.20;0.65;;;22.80;42.20;;;;;;5067996;28;20409;-79
2021/11/03 04:45:03;;;;;;;2.90;0.50;;;22.80;42.10;;;;;;5054000;28;20393;-64
2021/11/03 04:47:29;;;;;;;4.43;0.60;;;22.80;42.10;;;;;;5054641;28;20433;-87
2021/11/03 04:49:57;;;;;;;2.30;0.50;;;22.80;42.40;;;;;;5053817;28;20755;-81
2021/11/03 04:52:24;;;;;;;4.65;0.57;;;22.80;42.60;;;;;;5053979;28;20404;-64
2021/11/03 04:54:49;;;;;;;4.57;0.70;;;22.80;42.30;;;;;;5052652;28;20479;-84
2021/11/03 04:57:17;;;;;;;5.82;0.60;;;22.90;42.10;;;;;;5053505;28;20906;-65
2021/11/03 04:59:45;;;;;;;3.03;0.50;;;22.80;41.80;;;;;;5055498;28;20410;-62
2021/11/03 05:02:12;;;;;;;2.10;0.60;;;22.80;41.80;;;;;;5055539;28;20396;-83
2021/11/03 05:04:38;;;;;;;1.80;0.60;;;22.70;42.10;;;;;;5054750;28;20472;-65
2021/11/03 05:07:04;;;;;;;2.78;0.60;;;22.70;42.10;;;;;;5054913;28;20480;-62
2021/11/03 05:09:30;;;;;;;2.50;0.68;;;22.70;42.00;;;;;;5039147;28;20984;-76
2021/11/03 05:11:56;;;;;;;2.15;0.50;;;22.60;42.00;;;;;;5055108;28;20456;-67
2021/11/03 05:14:21;;;;;;;2.23;0.50;;;22.70;42.30;;;;;;5054274;28;20912;-72
2021/11/03 05:16:48;;;;;;;2.10;0.50;;;22.70;42.20;;;;;;5052726;28;20502;-70
2021/11/03 05:19:30;;;;;;;2.83;0.50;;;22.70;42.10;;;;;;5051919;28;20378;-65
2021/11/03 05:21:58;;;;;;;2.30;0.50;;;22.70;41.90;;;;;;5051833;28;20478;-73
2021/11/03 05:24:24;;;;;;;3.25;0.50;;;22.70;41.90;;;;;;5054069;28;20393;-66
2021/11/03 05:26:49;;;;;;;4.07;0.70;;;22.70;41.90;;;;;;5053620;28;20433;-73
2021/11/03 05:29:17;;;;;;;3.53;0.88;;;22.70;42.20;;;;;;5052992;28;20434;-71
2021/11/03 05:31:43;;;;;;;3.13;0.80;;;22.70;41.00;;;;;;5053951;28;20390;-63
2021/11/03 05:34:08;;;;;;;1.55;0.50;;;22.70;42.60;;;;;;5055291;28;21018;-85
2021/11/03 05:36:35;;;;;;;3.70;0.70;;;22.70;42.60;;;;;;5052782;28;20460;-75
2021/11/03 05:39:05;;;;;;;4.00;0.65;;;22.70;42.00;;;;;;5036381;28;20382;-86
2021/11/03 05:41:30;;;;;;;2.92;0.70;;;22.70;41.30;;;;;;5055532;28;20441;-76
2021/11/03 05:43:56;;;;;;;4.70;0.65;;;22.80;41.60;;;;;;5056782;28;20377;-62
2021/11/03 05:46:30;;;;;;;4.23;0.90;;;22.70;41.40;;;;;;5056596;28;20479;-70
2021/11/03 05:48:58;;;;;;;5.60;0.80;;;22.70;42.30;;;;;;5056139;28;20379;-74
2021/11/03 05:51:24;;;;;;;3.80;0.60;;;22.80;42.60;;;;;;5051809;28;20455;-62
2021/11/03 05:53:49;;;;;;;3.33;0.80;;;22.80;42.30;;;;;;5055263;28;20388;-62
2021/11/03 05:56:15;;;;;;;3.83;0.70;;;22.80;41.70;;;;;;5058010;28;20453;-64
2021/11/03 05:58:41;;;;;;;4.43;1.00;;;22.70;42.10;;;;;;5057584;28;20484;-65
2021/11/03 06:01:07;;;;;;;4.30;0.63;;;22.80;42.20;;;;;;5056080;28;20940;-67
2021/11/03 06:03:33;;;;;;;3.67;0.93;;;22.80;42.30;;;;;;5055458;28;20394;-63
2021/11/03 06:05:59;;;;;;;3.72;0.73;;;22.80;42.10;;;;;;5069760;28;20396;-65
2021/11/03 06:08:24;;;;;;;2.87;0.60;;;22.80;41.90;;;;;;5057801;28;20435;-75
2021/11/03 06:10:51;;;;;;;2.50;0.60;;;22.80;41.80;;;;;;5054688;28;20420;-74
2021/11/03 06:13:19;;;;;;;2.92;0.63;;;22.80;41.70;;;;;;5065641;28;20404;-63
2021/11/03 06:15:45;;;;;;;2.78;0.50;;;22.70;41.60;;;;;;5033500;28;20854;-73
2021/11/03 06:18:11;;;;;;;3.20;0.90;;;22.70;41.70;;;;;;5054480;28;20986;-72
2021/11/03 06:20:36;;;;;;;5.70;0.70;;;22.70;41.70;;;;;;5055884;28;20448;-63
2021/11/03 06:23:03;;;;;;;2.38;0.60;;;22.70;41.70;;;;;;5057220;28;21236;-86
2021/11/03 06:25:28;;;;;;;3.75;0.70;;;22.70;41.70;;;;;;5058147;28;20460;-63
2021/11/03 06:27:56;;;;;;;6.50;0.70;;;22.70;41.60;;;;;;5055914;28;20486;-69
2021/11/03 06:30:28;;;;;;;3.20;0.60;;;22.70;41.50;;;;;;5056550;28;20395;-62
2021/11/03 06:32:54;;;;;;;4.20;0.73;;;22.70;41.60;;;;;;5054897;28;20400;-88
2021/11/03 06:35:20;;;;;;;4.07;0.60;;;22.70;41.60;;;;;;5056802;28;20392;-75
2021/11/03 06:37:46;;;;;;;3.15;0.50;;;22.70;41.60;;;;;;5056847;28;20516;-64
2021/11/03 06:40:16;;;;;;;2.65;0.60;;;22.60;41.50;;;;;;5058343;28;20507;-63
2021/11/03 06:42:42;;;;;;;1.67;0.50;;;22.70;41.50;;;;;;5072895;28;20391;-62
2021/11/03 06:45:10;;;;;;;2.38;0.50;;;22.70;41.50;;;;;;5057531;28;20388;-82
2021/11/03 06:47:36;;;;;;;1.88;0.50;;;22.60;41.40;;;;;;5055252;28;20790;-73
2021/11/03 06:50:03;;;;;;;1.93;0.53;;;22.70;41.40;;;;;;5057189;28;20392;-68
2021/11/03 06:52:30;;;;;;;2.90;0.50;;;22.60;41.40;;;;;;5054744;28;20393;-62
2021/11/03 06:54:56;;;;;;;2.22;0.57;;;22.60;41.30;;;;;;5059575;28;20496;-88
2021/11/03 06:57:22;;;;;;;2.65;0.60;;;22.60;41.40;;;;;;5052711;28;20512;-86
2021/11/03 06:59:47;;;;;;;4.23;0.60;;;22.60;41.40;;;;;;5067193;28;20437;-62
2021/11/03 07:02:15;;;;;;;3.03;0.50;;;22.60;41.40;;;;;;5052122;28;20391;-63
2021/11/03 07:04:41;;;;;;;3.53;0.43;;;22.60;41.50;;;;;;5052632;28;20396;-87
2021/11/03 07:07:07;;;;;;;3.25;0.52;;;22.60;41.50;;;;;;5070146;28;20380;-62
2021/11/03 07:09:33;;;;;;;2.93;0.40;;;22.50;41.50;;;;;;5061685;28;20392;-62
2021/11/03 07:11:58;;;;;;;2.97;0.50;;;22.50;41.40;;;;;;5076874;28;20392;-89
2021/11/03 07:14:24;;;;;;;2.35;0.60;;;22.50;41.40;;;;;;5066377;28;20397;-88
2021/11/03 07:16:51;;;;;;;2.93;0.70;;;22.50;41.30;;;;;;5052454;28;20955;-88
2021/11/03 07:19:17;;;;;;;2.08;0.40;;;22.50;41.40;;;;;;5066795;28;20413;-62
2021/11/03 07:21:43;;;;;;;1.33;0.60;;;22.50;41.40;;;;;;5066079;28;20899;-63
2021/11/03 07:24:11;;;;;;;2.60;0.50;;;22.50;41.30;;;;;;5061804;28;20411;-88
2021/11/03 07:26:36;;;;;;;2.22;0.50;;;22.50;41.20;;;;;;5054096;28;20397;-80
2021/11/03 07:29:02;;;;;;;2.13;0.60;;;22.50;41.20;;;;;;5054263;28;20385;-63
2021/11/03 07:31:28;;;;;;;2.03;0.50;;;22.50;41.20;;;;;;5044848;28;20492;-89
2021/11/03 07:33:54;;;;;;;2.17;0.68;;;22.50;41.30;;;;;;5063035;28;20476;-87
2021/11/03 07:36:20;;;;;;;1.50;0.40;;;22.50;41.30;;;;;;5052404;28;20498;-88
2021/11/03 07:38:47;;;;;;;1.88;0.50;;;22.50;41.20;;;;;;5064550;28;20392;-62
2021/11/03 07:41:14;;;;;;;1.10;0.50;;;22.50;41.30;;;;;;5068129;28;20431;-87
2021/11/03 07:43:40;;;;;;;1.60;0.65;;;22.50;41.30;;;;;;5052921;28;20408;-86
2021/11/03 07:46:06;;;;;;;1.58;0.60;;;22.50;41.20;;;;;;5037131;28;20393;-68
2021/11/03 07:48:32;;;;;;;1.58;0.50;;;22.50;41.20;;;;;;5054620;28;20563;-67
2021/11/03 07:51:05;;;;;;;1.10;0.45;;;22.50;41.20;;;;;;5046536;28;20397;-62
2021/11/03 07:53:32;;;;;;;0.90;0.50;;;22.50;41.20;;;;;;5064059;28;20391;-62
2021/11/03 07:56:05;;;;;;;1.13;0.47;;;22.50;41.20;;;;;;5061634;28;20422;-86
2021/11/03 07:58:34;;;;;;;1.20;0.50;;;22.50;41.20;;;;;;5053069;28;20940;-62
2021/11/03 08:01:00;;;;;;;1.50;0.50;;;22.50;41.10;;;;;;5062137;28;20809;-86
2021/11/03 08:03:26;;;;;;;0.77;0.40;;;22.40;41.10;;;;;;5052068;28;20435;-63
2021/11/03 08:05:53;;;;;;;1.05;0.43;;;22.40;41.10;;;;;;5051919;28;20393;-62
2021/11/03 08:08:22;;;;;;;1.00;0.40;;;22.40;41.10;;;;;;5051705;28;20798;-62
2021/11/03 08:10:49;;;;;;;0.80;0.40;;;22.40;41.00;;;;;;5058590;28;20450;-62
2021/11/03 08:13:18;;;;;;;1.98;0.50;;;22.40;41.00;;;;;;5054088;28;20390;-79
2021/11/03 08:15:46;;;;;;;1.45;0.47;;;22.40;41.00;;;;;;5055375;28;20423;-71
2021/11/03 08:18:14;;;;;;;1.80;0.50;;;22.40;41.00;;;;;;5073444;28;20890;-80
2021/11/03 08:20:41;;;;;;;1.35;0.55;;;22.40;41.10;;;;;;5052091;28;20393;-62
2021/11/03 08:23:08;;;;;;;1.70;0.50;;;22.40;41.00;;;;;;5063149;28;20401;-86
2021/11/03 08:25:34;;;;;;;1.08;0.50;;;22.50;41.00;;;;;;5052698;28;20397;-78
2021/11/03 08:28:00;;;;;;;1.80;0.60;;;22.50;41.10;;;;;;5067556;28;20402;-69
2021/11/03 08:30:26;;;;;;;0.85;0.50;;;22.40;41.00;;;;;;5060825;28;20416;-62
2021/11/03 08:33:01;;;;;;;1.55;0.60;;;22.40;40.90;;;;;;5052110;28;20400;-65
2021/11/03 08:35:28;;;;;;;0.90;0.50;;;22.40;40.90;;;;;;5063114;28;20429;-74
2021/11/03 08:38:00;;;;;;;1.35;0.50;;;22.40;40.90;;;;;;5063160;28;20421;-70
2021/11/03 08:40:26;;;;;;;1.35;0.55;;;22.40;40.90;;;;;;5052245;28;20386;-62
2021/11/03 08:42:52;;;;;;;1.40;0.60;;;22.40;40.90;;;;;;5053241;28;20397;-74
2021/11/03 08:45:18;;;;;;;1.20;0.55;;;22.40;40.90;;;;;;5054311;28;20394;-63
2021/11/03 08:47:44;;;;;;;1.85;0.52;;;22.40;40.80;;;;;;5061170;28;20456;-67
2021/11/03 08:50:17;;;;;;;1.15;0.50;;;22.40;40.70;;;;;;5058571;28;20400;-87
2021/11/03 08:52:44;;;;;;;1.50;0.50;;;22.40;40.60;;;;;;5040258;28;20393;-70
2021/11/03 08:55:10;;;;;;;1.15;0.47;;;22.40;40.70;;;;;;5057207;28;20398;-71
2021/11/03 08:57:36;;;;;;;2.20;0.82;;;22.40;40.60;;;;;;5057591;28;20422;-62
2021/11/03 09:00:10;;;;;;;1.70;0.50;;;22.30;40.60;;;;;;5053728;28;20401;-67
2021/11/03 09:02:36;;;;;;;2.25;0.60;;;22.40;40.70;;;;;;5037339;28;20408;-63
2021/11/03 09:05:02;;;;;;;1.67;0.70;;;22.40;40.70;;;;;;5051484;28;20759;-71
2021/11/03 09:07:33;;;;;;;1.13;0.40;;;22.40;40.70;;;;;;5070373;28;20383;-86
2021/11/03 09:10:03;;;;;;;2.50;0.70;;;22.40;40.80;;;;;;5057896;28;20407;-88
2021/11/03 09:12:28;;;;;;;1.65;0.70;;;22.40;40.80;;;;;;5053797;28;20398;-62
2021/11/03 09:14:54;;;;;;;1.42;0.65;;;22.40;40.80;;;;;;5051084;28;20453;-62
2021/11/03 09:17:21;;;;;;;0.70;0.40;;;22.40;40.80;;;;;;5073383;28;20505;-86
2021/11/03 09:19:47;;;;;;;1.37;0.60;;;22.40;40.80;;;;;;5078913;28;20907;-62
2021/11/03 09:22:13;;;;;;;1.27;0.50;;;22.30;40.80;;;;;;5061601;28;20506;-73
2021/11/03 09:24:39;;;;;;;0.98;0.50;;;22.30;40.80;;;;;;5060592;28;20433;-62
2021/11/03 09:27:13;;;;;;;1.00;0.50;;;22.30;40.90;;;;;;5063297;28;20425;-62
2021/11/03 09:29:47;;;;;;;1.30;0.40;;;22.40;40.90;;;;;;5058776;28;20448;-73
2021/11/03 09:32:18;;;;;;;0.90;0.40;;;22.40;40.90;;;;;;5081657;28;20474;-63
2021/11/03 09:34:45;;;;;;;0.90;0.50;;;22.40;40.90;;;;;;5085348;28;20414;-61
2021/11/03 09:37:12;;;;;;;0.77;0.40;;;22.30;40.90;;;;;;5078983;28;20419;-62
2021/11/03 09:39:39;;;;;;;1.00;0.50;;;22.30;41.00;;;;;;5079666;28;20398;-85
2021/11/03 09:42:06;;;;;;;0.80;0.50;;;22.30;41.00;;;;;;5065837;28;20386;-61
2021/11/03 09:44:34;;;;;;;0.70;0.40;;;22.30;41.00;;;;;;5083758;28;20499;-63
2021/11/03 09:47:16;;;;;;;1.23;0.53;;;22.30;41.00;;;;;;5085722;28;20929;-62
2021/11/03 09:49:47;;;;;;;0.98;0.47;;;22.40;41.10;;;;;;5076435;28;20386;-86
2021/11/03 09:52:19;;;;;;;1.02;0.47;;;22.30;41.00;;;;;;5094358;28;20394;-62
2021/11/03 09:54:50;;;;;;;0.80;0.50;;;22.30;40.90;;;;;;5076259;28;20401;-87
2021/11/03 09:57:41;;;;;;;0.80;0.50;;;22.30;41.00;;;;;;5094717;28;20906;-62
2021/11/03 10:00:13;;;;;;;1.10;0.50;;;22.30;41.00;;;;;;5094759;28;20455;-87
2021/11/03 10:03:13;;;;;;;1.02;0.50;;;22.30;41.10;;;;;;5094128;28;20457;-62
2021/11/03 10:06:10;;;;;;;1.10;0.50;;;22.30;41.00;;;;;;5083122;28;20429;-62
2021/11/03 10:08:44;;;;;;;1.13;0.40;;;22.30;41.00;;;;;;5094474;28;20386;-62
2021/11/03 10:11:15;;;;;;;1.10;0.55;;;22.30;41.00;;;;;;5075665;28;20872;-62
2021/11/03 10:13:42;;;;;;;1.52;0.50;;;22.30;41.00;;;;;;5076030;28;20929;-85
2021/11/03 10:16:10;;;;;;;1.10;0.47;;;22.30;41.00;;;;;;5094383;28;20944;-86
2021/11/03 10:18:57;;;;;;;1.13;0.50;;;22.30;41.00;;;;;;5094333;28;20450;-62
2021/11/03 10:21:31;;;;;;;1.10;0.50;;;22.30;41.00;;;;;;5094092;28;20415;-82
2021/11/03 10:24:11;;;;;;;0.80;0.43;;;22.30;41.00;;;;;;5093425;28;20391;-86
2021/11/03 10:26:49;;;;;;;1.70;0.60;;;22.30;41.00;;;;;;5094015;28;20382;-62
2021/11/03 10:29:19;;;;;;;2.20;0.50;;;22.30;41.00;;;;;;5075499;28;20477;-62
2021/11/03 10:32:08;;;;;;;0.88;0.40;;;22.30;41.00;;;;;;5093974;28;20382;-70
2021/11/03 10:34:34;;;;;;;0.98;0.40;;;22.30;41.00;;;;;;5056080;28;20898;-62
2021/11/03 10:37:25;;;;;;;0.90;0.50;;;22.30;41.00;;;;;;5093748;28;20420;-88
2021/11/03 10:39:59;;;;;;;1.58;0.40;;;22.30;41.00;;;;;;5094198;28;20749;-74
2021/11/03 10:42:46;;;;;;;1.23;0.50;;;22.30;41.00;;;;;;5094084;28;20401;-74
2021/11/03 10:45:38;;;;;;;0.75;0.40;;;22.30;41.00;;;;;;5094007;28;20386;-77
2021/11/03 10:48:07;;;;;;;2.10;0.60;;;22.30;41.00;;;;;;5093893;28;20436;-62
2021/11/03 10:50:43;;;;;;;1.38;0.35;;;22.30;40.90;;;;;;5075817;28;20895;-63
2021/11/03 10:53:20;;;;;;;2.15;0.50;;;22.30;40.90;;;;;;5094063;28;20394;-86
2021/11/03 10:56:07;;;;;;;1.00;0.40;;;22.30;40.90;;;;;;5093598;28;20476;-86
2021/11/03 10:59:01;;;;;;;1.10;0.40;;;22.30;40.90;;;;;;5094099;28;20945;-64
2021/11/03 11:01:38;;;;;;;1.20;0.47;;;22.30;40.90;;;;;;5094163;28;20447;-62
2021/11/03 11:04:11;;;;;;;1.17;0.40;;;22.30;40.90;;;;;;5093996;28;20810;-86
2021/11/03 11:06:53;;;;;;;1.17;0.43;;;22.30;41.00;;;;;;5093647;28;20401;-62
2021/11/03 11:09:25;;;;;;;1.00;0.40;;;22.30;41.00;;;;;;5092810;28;20429;-86
2021/11/03 11:11:56;;;;;;;0.80;0.40;;;22.30;40.90;;;;;;5093352;28;20413;-62
2021/11/03 11:14:25;;;;;;;1.25;0.40;;;22.30;41.00;;;;;;5093223;28;20473;-62
2021/11/03 11:17:04;;;;;;;0.98;0.40;;;22.30;41.00;;;;;;5092032;28;20441;-62
2021/11/03 11:19:56;;;;;;;1.40;0.35;;;22.30;41.10;;;;;;5092429;28;20757;-86
2021/11/03 11:22:25;;;;;;;0.82;0.40;;;22.30;41.10;;;;;;5092649;28;20406;-63
2021/11/03 11:25:13;;;;;;;1.80;0.47;;;22.30;41.00;;;;;;5074262;28;20473;-68
2021/11/03 11:28:02;;;;;;;1.10;0.47;;;22.30;41.10;;;;;;5092960;28;20475;-62
2021/11/03 11:30:48;;;;;;;1.45;0.45;;;22.30;41.00;;;;;;5093070;28;20740;-85
2021/11/03 11:33:29;;;;;;;1.70;0.40;;;22.30;41.00;;;;;;5092628;28;20397;-61
2021/11/03 11:36:18;;;;;;;1.00;0.47;;;22.30;41.00;;;;;;5074379;28;20386;-61
2021/11/03 11:39:02;;;;;;;2.28;0.45;;;22.30;40.90;;;;;;5091881;28;20394;-62
2021/11/03 11:41:47;;;;;;;1.40;0.40;;;22.40;41.00;;;;;;5092525;28;20385;-62
2021/11/03 11:44:18;;;;;;;0.90;0.40;;;22.40;40.90;;;;;;5092533;28;20439;-61
2021/11/03 11:46:47;;;;;;;2.45;0.60;;;22.30;40.90;;;;;;5091611;28;20381;-62
2021/11/03 11:49:32;;;;;;;0.82;0.40;;;22.40;40.80;;;;;;5092413;28;20389;-63
2021/11/03 11:52:12;;;;;;;1.53;0.50;;;22.40;40.80;;;;;;5092006;28;20879;-62
2021/11/03 11:54:41;;;;;;;1.08;0.40;;;22.40;40.80;;;;;;5087822;28;20469;-61
2021/11/03 11:57:13;;;;;;;0.90;0.57;;;22.40;40.80;;;;;;5073498;28;20418;-62
2021/11/03 11:59:58;;;;;;;0.85;0.40;;;22.40;40.80;;;;;;5085284;28;20873;-63
2021/11/03 12:02:25;;;;;;;1.08;0.45;;;22.40;40.80;;;;;;5072647;28;20391;-83
2021/11/03 12:05:29;;;;;;;0.90;0.50;;;22.30;40.80;;;;;;5072247;28;20419;-61
2021/11/03 12:08:21;;;;;;;1.08;0.50;;;22.30;40.80;;;;;;5079180;28;20417;-62
2021/11/03 12:10:55;;;;;;;1.00;0.50;;;22.40;40.90;;;;;;5074900;28;20398;-62
2021/11/03 12:13:24;;;;;;;1.17;0.67;;;22.30;40.90;;;;;;5062514;28;20406;-61
2021/11/03 12:15:49;;;;;;;1.15;0.50;;;22.30;40.80;;;;;;5079427;28;20372;-62
2021/11/03 12:18:35;;;;;;;1.17;0.60;;;22.40;40.90;;;;;;5081210;28;20401;-62
2021/11/03 12:21:01;;;;;;;0.95;0.60;;;22.40;40.90;;;;;;5064462;28;20406;-61
2021/11/03 12:23:56;;;;;;;0.82;0.40;;;22.30;40.90;;;;;;5063230;28;20410;-62
2021/11/03 12:26:25;;;;;;;1.55;0.50;;;22.40;41.00;;;;;;5061001;28;20770;-61
2021/11/03 12:29:16;;;;;;;1.20;0.50;;;22.30;41.50;;;;;;5067516;28;20472;-87
2021/11/03 12:31:42;;;;;;;1.08;0.57;;;22.40;40.90;;;;;;5091907;28;20760;-69
2021/11/03 12:34:08;;;;;;;1.13;0.53;;;22.30;40.90;;;;;;5091882;28;20377;-61
2021/11/03 12:36:58;;;;;;;1.00;0.60;;;22.30;40.90;;;;;;5074047;28;20519;-78
2021/11/03 12:39:30;;;;;;;1.80;0.70;;;22.40;40.90;;;;;;5053000;28;20382;-62
2021/11/03 12:42:01;;;;;;;1.67;0.60;;;22.40;40.90;;;;;;5091895;28;20393;-85
2021/11/03 12:44:43;;;;;;;1.20;0.70;;;22.40;40.90;;;;;;5091756;28;20455;-74
2021/11/03 12:47:24;;;;;;;1.00;0.57;;;22.40;40.90;;;;;;5091420;28;20398;-86
2021/11/03 12:50:13;;;;;;;1.63;0.60;;;22.40;40.90;;;;;;5091904;28;20386;-63
2021/11/03 12:52:41;;;;;;;1.20;0.70;;;22.40;40.90;;;;;;5096012;28;20386;-62
2021/11/03 12:55:26;;;;;;;1.02;0.70;;;22.40;40.90;;;;;;5077437;28;20409;-88
2021/11/03 12:57:53;;;;;;;1.10;0.70;;;22.30;40.90;;;;;;5095793;28;20899;-84
2021/11/03 13:00:23;;;;;;;1.60;0.85;;;22.40;40.90;;;;;;5077245;28;20394;-62
2021/11/03 13:02:59;;;;;;;1.30;0.73;;;22.40;41.00;;;;;;5077487;28;20906;-68